Latest Weather Observations for Truscott

IDW60801

Issued at 8:05 pm WST Thursday 24 July 2014 (issued every 30 minutes, with the page automatically refreshed every 10 minutes)

About weather observations | Map of weather stations | Latest weather observations for WA | Other Formats
Station Details ID: 001020 Name: TRUSCOTT Lat: -14.09 Lon: 126.39 Height: 51.0 m
Data from the previous 72 hours. | See also: Recent months at Truscott
Date/Time
WST
Temp
°C
App
Temp
°C
Dew
Point
Rel
Hum
%
Delta-T
°C
Wind Press
QNH
hPa
Press
MSL
hPa
Rain
since 9 am
mm
Dir
 
Spd
km/h
Gust
km/h
Spd
kts
Gust
kts
24/08:00pm 22.0 25.4 21.0 94 0.7 W 4 7 2 4 1014.0 - 0.0
24/07:30pm 22.0 25.1 21.0 94 0.7 W 6 7 3 4 1013.0 - 0.0
24/07:00pm 23.0 26.0 20.0 83 1.9 NW 4 - 2 - 1013.0 - 0.0
24/06:30pm 24.0 26.4 20.0 78 2.6 NNW 7 - 4 - 1012.0 - 0.0
24/06:00pm 23.7 26.2 20.2 81 2.3 NNW 7 7 4 4 1012.0 1012.0 0.0
24/05:30pm 24.0 26.0 20.0 78 2.6 NNW 9 - 5 - 1012.0 - 0.0
24/05:00pm 25.0 26.6 20.0 74 3.2 NNW 11 - 6 - 1012.0 - 0.0
24/04:30pm 26.0 27.6 20.0 69 3.9 NNW 11 - 6 - 1011.0 - 0.0
24/04:00pm 27.0 27.8 19.0 61 5.1 NNW 13 - 7 - 1011.0 - 0.0
24/03:30pm 27.0 27.8 19.0 61 5.1 NNW 13 - 7 - 1011.0 - 0.0
24/03:00pm 27.3 27.9 19.4 62 5.1 N 15 - 8 - 1011.0 1011.3 0.0
24/02:30pm 28.0 29.2 20.0 61 5.2 N 13 - 7 - 1011.0 - 0.0
24/02:00pm 27.0 27.9 20.0 65 4.6 N 15 - 8 - 1011.0 - 0.0
24/01:30pm 27.0 27.4 19.0 61 5.1 N 15 - 8 - 1012.0 - 0.0
24/01:00pm 28.0 28.7 18.0 54 6.4 NNW 11 - 6 - 1012.0 - 0.0
24/12:30pm 28.0 28.3 17.0 51 6.9 W 11 - 6 - 1013.0 - 0.0
24/12:00pm 27.7 27.7 17.2 52 6.6 W 13 - 7 - 1013.0 1013.1 0.0
24/11:30am 28.0 27.9 17.0 51 6.9 W 13 - 7 - 1014.0 - 0.0
24/11:00am 28.0 28.3 17.0 51 6.9 W 11 - 6 - 1014.0 - 0.0
24/10:30am 28.0 27.9 17.0 51 6.9 W 13 - 7 - 1014.0 - 0.0
24/10:00am 27.0 27.3 16.0 51 6.8 W 9 - 5 - 1014.0 - 0.0
24/09:30am 27.0 27.7 18.0 58 5.7 WNW 11 - 6 - 1015.0 - 0.0
24/09:00am 26.2 27.2 17.8 60 5.3 WNW 9 - 5 - 1015.0 1014.9 0.0
24/08:30am 25.0 28.0 20.0 74 3.2 W 4 - 2 - 1015.0 - 0.0
24/08:00am 24.0 27.3 20.0 78 2.6 NE 2 - 1 - 1015.0 - 0.0
24/07:30am 22.0 24.5 19.0 83 1.9 NNE 4 - 2 - 1014.0 - 0.0
24/07:00am 22.0 25.3 19.0 83 1.9 CALM 0 - 0 - 1014.0 - 0.0
24/06:30am 21.0 22.5 19.0 88 1.3 SSW 9 - 5 - 1014.0 - 0.0
24/06:00am 20.7 21.7 18.6 88 1.3 SSW 11 - 6 - 1013.0 1013.3 0.0
24/05:30am 21.0 21.8 19.0 88 1.3 SW 13 - 7 - 1013.0 - 0.0
24/05:00am 21.0 22.2 19.0 88 1.3 SW 11 - 6 - 1013.0 - 0.0
24/04:30am 21.0 22.1 18.0 83 1.9 SW 9 - 5 - 1012.0 - 0.0
24/04:00am 21.0 22.2 19.0 88 1.3 SW 11 - 6 - 1012.0 - 0.0
24/03:30am 21.0 22.1 18.0 83 1.9 SW 9 - 5 - 1012.0 - 0.0
24/03:00am 20.4 21.4 17.8 85 1.6 SW 9 - 5 - 1012.0 1012.5 0.0
24/02:30am 20.0 20.7 17.0 83 1.8 SW 9 - 5 - 1012.0 - 0.0
24/02:00am 21.0 21.7 17.0 78 2.4 SSW 9 - 5 - 1013.0 - 0.0
24/01:30am 21.0 21.7 18.0 83 1.9 SW 11 - 6 - 1013.0 - 0.0
24/01:00am 21.0 22.5 18.0 83 1.9 SW 7 - 4 - 1013.0 - 0.0
24/12:30am 21.0 23.1 19.0 88 1.3 SW 6 - 3 - 1013.0 - 0.0
24/12:00am 19.5 21.4 17.6 89 1.2 WSW 4 - 2 - 1014.0 1013.6 0.0
 
Date/Time
WST
Temp
°C
App
Temp
°C
Dew
Point
Rel
Hum
%
Delta-T
°C
Wind Press
QNH
hPa
Press
MSL
hPa
Rain
since 9 am
mm
Dir
 
Spd
km/h
Gust
km/h
Spd
kts
Gust
kts
23/11:30pm 20.0 22.8 18.0 88 1.2 CALM 0 - 0 - 1014.0 - 0.0
23/11:00pm 20.0 22.4 17.0 83 1.8 CALM 0 - 0 - 1014.0 - 0.0
23/10:30pm 20.0 22.4 17.0 83 1.8 CALM 0 - 0 - 1014.0 - 0.0
23/10:00pm 20.0 22.4 17.0 83 1.8 CALM 0 - 0 - 1014.0 - 0.0
23/09:30pm 20.0 22.8 18.0 88 1.2 CALM 0 - 0 - 1014.0 - 0.0
23/09:00pm 20.3 22.8 17.3 83 1.8 CALM 0 - 0 - 1014.0 1013.8 0.0
23/08:30pm 21.0 22.6 17.0 78 2.4 W 4 - 2 - 1014.0 - 0.0
23/08:00pm 22.0 23.5 18.0 78 2.5 WNW 7 - 4 - 1014.0 - 0.0
23/07:30pm 22.0 23.5 18.0 78 2.5 WNW 7 - 4 - 1013.0 - 0.0
23/07:00pm 22.0 23.1 17.0 73 3.1 WNW 7 - 4 - 1013.0 - 0.0
23/06:30pm 22.0 22.9 16.0 68 3.6 NNW 6 - 3 - 1013.0 - 0.0
23/06:00pm 22.5 22.8 15.1 63 4.4 N 7 - 4 - 1012.0 1012.2 0.0
23/05:30pm 24.0 23.9 14.0 53 5.9 N 7 - 4 - 1012.0 - 0.0
23/05:00pm 25.0 24.6 14.0 50 6.5 NNW 9 - 5 - 1012.0 - 0.0
23/04:30pm 26.0 25.2 14.0 47 7.1 NNW 11 - 6 - 1012.0 - 0.0
23/04:00pm 26.0 24.5 13.0 44 7.6 NNW 13 - 7 - 1012.0 - 0.0
23/03:30pm 27.0 24.8 12.0 39 8.7 NNW 15 - 8 - 1012.0 - 0.0
23/03:00pm 27.8 24.6 8.6 30 10.5 N 15 - 8 - 1011.0 1011.4 0.0
23/02:30pm 28.0 25.4 12.0 37 9.3 N 17 - 9 - 1011.0 - 0.0
23/02:00pm 28.0 25.8 12.0 37 9.3 N 15 - 8 - 1011.0 - 0.0
23/01:30pm 28.0 26.5 13.0 39 8.8 N 13 - 7 - 1012.0 - 0.0
23/01:00pm 28.0 26.1 13.0 39 8.8 N 15 - 8 - 1012.0 - 0.0
23/12:30pm 28.0 26.5 13.0 39 8.8 NNW 13 - 7 - 1012.0 - 0.0
23/12:00pm 28.3 26.9 13.4 40 8.8 N 13 - 7 - 1013.0 1012.7 0.0
23/11:30am 29.0 27.0 10.0 30 10.7 NNW 11 - 6 - 1013.0 - 0.0
23/11:00am 28.0 26.9 12.0 37 9.3 NNW 9 - 5 - 1014.0 - 0.0
23/10:30am 28.0 28.1 14.0 42 8.4 NE 6 - 3 - 1014.0 - 0.0
23/10:00am 27.0 26.0 11.0 36 9.1 NW 7 - 4 - 1015.0 - 0.0
23/09:30am 27.0 26.6 11.0 36 9.1 W 4 - 2 - 1015.0 - 0.0
23/09:00am 25.8 25.5 12.6 44 7.6 S 6 - 3 - 1015.0 1015.2 0.0
23/08:30am 25.0 24.6 13.0 47 7.0 SSW 7 - 4 - 1015.0 - 0.0
23/08:00am 23.0 22.6 14.0 57 5.3 SSW 9 - 5 - 1015.0 - 0.0
23/07:30am 22.0 22.7 16.0 68 3.6 SSW 7 - 4 - 1015.0 - 0.0
23/07:00am 20.0 20.7 17.0 83 1.8 SW 9 - 5 - 1014.0 - 0.0
23/06:30am 20.0 20.3 17.0 83 1.8 SSW 11 - 6 - 1014.0 - 0.0
23/06:00am 19.0 19.8 17.3 90 1.0 SSW 9 - 5 - 1014.0 1014.2 0.0
23/05:30am 19.0 19.7 17.0 88 1.2 SSW 9 - 5 - 1014.0 - 0.0
23/05:00am 19.0 18.9 17.0 88 1.2 SSW 13 - 7 - 1014.0 - 0.0
23/04:30am 19.0 19.7 17.0 88 1.2 SSW 9 - 5 - 1014.0 - 0.0
23/04:00am 19.0 19.7 17.0 88 1.2 SW 9 - 5 - 1014.0 - 0.0
23/03:30am 19.0 19.3 17.0 88 1.2 SW 11 - 6 - 1014.0 - 0.0
23/03:00am 19.2 19.8 17.7 91 0.9 SW 11 - 6 - 1014.0 1013.6 0.0
23/02:30am 19.0 20.5 18.0 94 0.6 SSW 7 - 4 - 1014.0 - 0.0
23/02:00am 20.0 21.5 19.0 94 0.6 SSW 9 - 5 - 1014.0 - 0.0
23/01:30am 19.0 21.1 19.0 100 0.0 SSW 6 - 3 - 1014.0 - 0.0
23/01:00am 19.0 21.1 18.0 94 0.6 SSW 4 - 2 - 1014.0 - 0.0
23/12:30am 20.0 21.9 19.0 94 0.6 SSW 7 - 4 - 1014.0 - 0.0
23/12:00am 18.6 21.5 18.1 97 0.3 CALM 0 - 0 - 1014.0 1014.2 0.0
 
Date/Time
WST
Temp
°C
App
Temp
°C
Dew
Point
Rel
Hum
%
Delta-T
°C
Wind Press
QNH
hPa
Press
MSL
hPa
Rain
since 9 am
mm
Dir
 
Spd
km/h
Gust
km/h
Spd
kts
Gust
kts
22/11:30pm 19.0 21.8 18.0 94 0.6 CALM 0 - 0 - 1014.0 - 0.0
22/11:00pm 19.0 21.8 18.0 94 0.6 CALM 0 - 0 - 1014.0 - 0.0
22/10:30pm 19.0 21.8 18.0 94 0.6 CALM 0 - 0 - 1015.0 - 0.0
22/10:00pm 20.0 23.3 19.0 94 0.6 CALM 0 - 0 - 1015.0 - 0.0
22/09:30pm 20.0 23.3 19.0 94 0.6 CALM 0 - 0 - 1015.0 - 0.0
22/09:00pm 20.4 22.7 18.5 89 1.2 E 4 - 2 - 1015.0 1014.7 0.0
22/08:30pm 21.0 22.9 19.0 88 1.3 ENE 7 - 4 - 1014.0 - 0.0
22/08:00pm 21.0 22.9 19.0 88 1.3 ENE 7 - 4 - 1014.0 - 0.0
22/07:30pm 21.0 23.1 19.0 88 1.3 ENE 6 - 3 - 1014.0 - 0.0
22/07:00pm 22.0 24.1 19.0 83 1.9 NE 6 - 3 - 1014.0 - 0.0
22/06:30pm 23.0 25.4 20.0 83 1.9 NNE 7 - 4 - 1013.0 - 0.0
22/06:00pm 23.2 25.1 19.8 81 2.2 N 9 - 5 - 1013.0 1012.8 0.0
22/05:30pm 24.0 25.5 19.0 73 3.2 N 9 - 5 - 1013.0 - 0.0
22/05:00pm 25.0 26.2 19.0 69 3.8 N 11 - 6 - 1012.0 - 0.0
22/04:30pm 26.0 26.7 18.0 61 5.1 N 11 - 6 - 1012.0 - 0.0
22/04:00pm 28.0 25.9 11.0 34 9.7 NE 13 - 7 - 1012.0 - 0.0
22/03:30pm 29.0 25.3 8.0 26 11.5 NE 17 - 9 - 1012.0 - 0.0
22/03:00pm 28.6 27.3 13.7 40 8.9 NE 13 - 7 - 1012.0 1011.7 0.0
22/02:30pm 28.0 26.4 15.0 45 7.9 NNE 17 - 9 - 1012.0 - 0.0
22/02:00pm 29.0 28.2 15.0 42 8.5 NE 13 - 7 - 1012.0 - 0.0
22/01:30pm 29.0 26.7 13.0 37 9.5 N 17 - 9 - 1012.0 - 0.0
22/01:00pm 30.0 26.6 9.0 27 11.7 NE 17 - 9 - 1012.0 - 0.0
22/12:30pm 30.0 26.7 8.0 25 12.1 E 15 - 8 - 1013.0 - 0.0
22/12:00pm 29.3 26.2 7.2 25 11.9 E 13 - 7 - 1013.0 1013.5 0.0
22/11:30am 29.0 25.5 7.0 25 11.8 E 15 - 8 - 1014.0 - 0.0
22/11:00am 28.0 24.1 7.0 26 11.2 E 17 - 9 - 1014.0 - 0.0
22/10:30am 27.0 22.9 6.0 26 10.9 E 17 - 9 - 1015.0 - 0.0
22/10:00am 27.0 22.5 6.0 26 10.9 E 19 - 10 - 1015.0 - 0.0
22/09:30am 26.0 22.2 6.0 27 10.4 E 15 - 8 - 1015.0 - 0.0
22/09:00am 25.6 22.0 6.7 30 9.9 E 15 - 8 - 1015.0 1015.6 0.0
22/08:30am 24.0 21.5 8.0 36 8.5 ESE 11 - 6 - 1016.0 - 0.0
22/08:00am 23.0 20.7 9.0 41 7.5 ESE 11 - 6 - 1015.0 - 0.0
22/07:30am 22.0 20.0 10.0 46 6.5 ESE 11 - 6 - 1015.0 - 0.0
22/07:00am 21.0 18.5 8.0 43 6.8 ESE 11 - 6 - 1015.0 - 0.0
22/06:30am 17.0 15.1 9.0 59 4.1 E 9 - 5 - 1015.0 - 0.0
22/06:00am 15.5 14.2 9.2 66 3.2 SE 6 - 3 - 1015.0 1014.8 0.0
22/05:30am 16.0 14.6 9.0 63 3.6 SSW 6 - 3 - 1015.0 - 0.0
22/05:00am 16.0 14.6 9.0 63 3.6 SSW 6 - 3 - 1014.0 - 0.0
22/04:30am 16.0 14.6 9.0 63 3.6 WSW 6 - 3 - 1014.0 - 0.0
22/04:00am 16.0 15.4 9.0 63 3.6 SW 2 - 1 - 1014.0 - 0.0
22/03:30am 15.0 14.3 10.0 72 2.6 WSW 4 - 2 - 1014.0 - 0.0
22/03:00am 16.6 16.1 9.5 63 3.7 SW 2 - 1 - 1014.0 1014.1 0.0
22/02:30am 17.0 15.9 10.0 63 3.7 SW 6 - 3 - 1014.0 - 0.0
22/02:00am 17.0 17.1 10.0 63 3.7 CALM 0 - 0 - 1014.0 - 0.0
22/01:30am 18.0 16.9 10.0 59 4.3 SSE 6 - 3 - 1015.0 - 0.0
22/01:00am 19.0 17.7 10.0 56 4.8 SSE 7 - 4 - 1015.0 - 0.0
22/12:30am 19.0 17.3 10.0 56 4.8 SE 9 - 5 - 1015.0 - 0.0
22/12:00am 19.5 17.9 10.2 55 5.0 SE 9 - 5 - 1015.0 1014.7 0.0
 
Date/Time
WST
Temp
°C
App
Temp
°C
Dew
Point
Rel
Hum
%
Delta-T
°C
Wind Press
QNH
hPa
Press
MSL
hPa
Rain
since 9 am
mm
Dir
 
Spd
km/h
Gust
km/h
Spd
kts
Gust
kts
21/11:30pm 19.0 18.3 12.0 64 3.9 SE 7 - 4 - 1015.0 - 0.0
21/11:00pm 19.0 19.3 15.0 77 2.3 ESE 7 - 4 - 1015.0 - 0.0
21/10:50pm 19.0 19.3 15.0 77 2.3 ESE 7 - 4 - 1015.0 - 0.0
21/10:37pm 19.0 19.3 15.0 77 2.3 ESE 7 - 4 - 1015.0 - 0.0
21/10:30pm 19.0 19.3 15.0 77 2.3 ESE 7 - 4 - 1015.0 - 0.0
21/10:00pm 20.0 20.3 15.0 73 2.9 E 7 - 4 - 1015.0 - 0.0
21/09:30pm 21.0 20.9 15.0 68 3.5 E 9 - 5 - 1015.0 - 0.0
21/09:00pm 21.6 21.3 14.3 63 4.3 E 9 - 5 - 1015.0 1015.1 0.0
21/08:30pm 22.0 21.6 14.0 60 4.7 ENE 9 - 5 - 1015.0 - 0.0

Other Formats:

Comma delimited format used in spreadsheet applications
http://www.bom.gov.au/fwo/IDW60801/IDW60801.95101.axf

JavaScript Object Notation format (JSON) in row-major order
http://www.bom.gov.au/fwo/IDW60801/IDW60801.95101.json